Time;durP1;ratioP1;P1;durP2;ratioP2;P2;SDS_P1;SDS_P2;PMS_P1;PMS_P2;Temp;Humidity;BMP_temperature;BMP_pressure;BME280_temperature;BME280_humidity;BME280_pressure;Samples;Min_cycle;Max_cycle;Signal;HPM_P1;HPM_P2
2022/12/07 00:00:01;;;;;;;5.85;3.30;;;7.90;63.90;;;6.56;65.82;100925.16;12160694;19;20022;-83
2022/12/07 00:04:05;;;;;;;4.75;3.85;;;7.90;63.80;;;6.47;66.03;100920.28;12165918;19;20011;-84
2022/12/07 00:08:06;;;;;;;5.45;3.65;;;7.90;63.70;;;6.36;65.81;100915.47;12164752;19;20019;-84
2022/12/07 00:12:08;;;;;;;5.40;4.07;;;7.80;63.50;;;6.08;65.96;100870.66;12168006;19;20360;-84
2022/12/07 00:16:18;;;;;;;4.57;3.55;;;7.80;63.40;;;6.27;65.80;100899.38;12168140;19;21063;-84
2022/12/07 00:20:19;;;;;;;5.22;3.97;;;7.70;63.30;;;6.25;66.02;100904.63;12164782;19;20010;-83
2022/12/07 00:24:22;;;;;;;6.13;3.60;;;7.90;63.50;;;6.28;65.94;100908.84;12164227;19;20370;-83
2022/12/07 00:28:23;;;;;;;4.70;3.55;;;7.60;63.20;;;6.22;65.77;100903.88;12166425;19;20015;-84
2022/12/07 00:32:26;;;;;;;5.75;4.03;;;7.60;63.00;;;6.22;65.89;100920.28;12162422;19;20896;-84
2022/12/07 00:36:28;;;;;;;5.60;4.22;;;7.50;62.80;;;6.03;65.68;100890.69;12164903;19;21072;-84
2022/12/07 00:40:30;;;;;;;4.93;3.70;;;7.50;62.70;;;6.02;65.98;100896.75;12159848;19;20318;-84
2022/12/07 00:44:32;;;;;;;6.45;4.60;;;7.60;62.80;;;6.05;65.93;100907.03;12161385;19;20018;-84
2022/12/07 00:48:34;;;;;;;5.93;4.25;;;7.40;62.80;;;6.02;65.78;100901.94;12160406;19;20879;-84
2022/12/07 00:52:35;;;;;;;5.47;4.03;;;7.30;62.60;;;5.98;65.90;100901.22;12159020;19;20325;-84
2022/12/07 00:56:37;;;;;;;7.05;4.65;;;7.30;62.60;;;5.84;65.94;100883.50;12169127;19;20029;-84
2022/12/07 01:00:42;;;;;;;5.30;4.15;;;7.30;62.70;;;5.87;65.72;100879.97;12175746;19;20018;-84
2022/12/07 01:04:43;;;;;;;4.55;3.58;;;7.30;62.70;;;5.94;65.93;100884.06;12172192;19;20030;-84
2022/12/07 01:08:45;;;;;;;5.38;4.20;;;7.30;62.60;;;5.98;65.90;100888.25;12169830;19;20508;-84
2022/12/07 01:12:46;;;;;;;5.63;4.43;;;7.30;63.20;;;5.98;65.86;100890.84;12177570;19;21130;-84
2022/12/07 01:16:48;;;;;;;5.78;3.83;;;7.30;62.40;;;5.77;65.71;100856.09;12177729;19;20046;-84
2022/12/07 01:21:02;;;;;;;4.45;3.67;;;7.20;62.20;;;5.85;65.57;100874.81;12174498;19;20035;-84
2022/12/07 01:25:06;;;;;;;4.38;3.85;;;7.20;61.90;;;5.70;65.79;100855.44;12167803;19;20510;-83
2022/12/07 01:29:08;;;;;;;4.53;3.33;;;7.20;61.80;;;5.81;65.56;100878.41;12170851;19;20380;-84
2022/12/07 01:33:10;;;;;;;3.85;3.30;;;7.40;61.80;;;5.74;65.69;100863.97;12174712;19;20901;-84
2022/12/07 01:37:12;;;;;;;4.30;3.45;;;7.10;61.50;;;5.74;65.75;100867.41;12171114;19;20046;-84
2022/12/07 01:41:16;;;;;;;5.13;3.75;;;7.10;61.50;;;5.70;65.73;100860.63;12174146;19;20488;-84
2022/12/07 01:45:39;;;;;;;3.85;3.45;;;7.10;61.50;;;5.69;65.47;100864.09;12180024;19;20030;-84
2022/12/07 01:49:47;;;;;;;3.80;3.35;;;7.00;61.30;;;5.67;65.45;100860.75;12194170;19;20097;-85
2022/12/07 01:53:49;;;;;;;3.45;3.10;;;7.00;61.40;;;5.66;65.49;100853.84;12197560;19;20026;-85
2022/12/07 01:57:54;;;;;;;3.67;2.67;;;7.20;61.50;;;5.63;65.66;100847.94;12191463;19;20604;-84
2022/12/07 02:01:56;;;;;;;3.40;2.73;;;7.00;61.30;;;5.66;65.77;100845.22;12187982;19;20031;-85
2022/12/07 02:06:00;;;;;;;3.00;2.70;;;6.90;61.40;;;5.66;65.75;100838.31;12181951;19;20326;-84
2022/12/07 02:10:22;;;;;;;3.38;2.88;;;7.00;61.50;;;5.60;65.65;100833.34;12191819;19;20309;-85
2022/12/07 02:14:24;;;;;;;4.00;3.25;;;7.00;61.60;;;5.50;65.67;100811.22;12195306;19;20044;-84
2022/12/07 02:18:41;;;;;;;4.28;3.15;;;7.20;61.80;;;5.68;65.37;100843.44;12194807;19;20047;-85
2022/12/07 02:23:01;;;;;;;3.15;2.85;;;7.00;61.70;;;5.71;65.54;100840.75;12194925;19;20046;-85
2022/12/07 02:27:51;;;;;;;2.60;2.40;;;7.00;61.80;;;5.70;65.44;100847.69;12187582;19;20414;-85
2022/12/07 02:32:40;;;;;;;3.13;2.72;;;7.00;61.70;;;5.61;65.68;100829.84;12194375;19;20035;-85
2022/12/07 02:36:57;;;;;;;3.25;2.95;;;7.00;61.60;;;5.58;65.61;100824.75;12184722;19;20288;-84
2022/12/07 02:41:07;;;;;;;3.13;2.83;;;7.00;61.60;;;5.59;65.39;100815.22;12183530;19;20410;-83
2022/12/07 02:45:12;;;;;;;3.05;2.65;;;7.00;61.50;;;5.68;65.63;100830.50;12187363;19;20790;-83
2022/12/07 02:49:15;;;;;;;3.20;2.90;;;7.00;61.40;;;5.62;65.67;100821.19;12186956;19;20014;-84
2022/12/07 02:53:38;;;;;;;3.80;2.63;;;7.00;61.30;;;5.62;65.59;100812.56;12189835;19;20018;-84
2022/12/07 02:58:12;;;;;;;2.90;2.60;;;7.00;61.30;;;5.56;65.32;100792.88;12187364;19;20015;-84
2022/12/07 03:02:56;;;;;;;3.05;2.35;;;7.00;61.20;;;5.54;65.38;100805.06;12188773;19;20307;-84
2022/12/07 03:07:31;;;;;;;3.28;2.67;;;7.00;61.20;;;5.58;65.35;100809.22;12187434;19;20022;-84
2022/12/07 03:11:53;;;;;;;3.13;2.57;;;6.90;61.20;;;5.44;65.34;100776.00;12190966;19;20074;-83
2022/12/07 03:16:40;;;;;;;2.83;2.35;;;6.90;61.20;;;5.54;65.34;100792.09;12183402;19;20039;-84
2022/12/07 03:20:45;;;;;;;2.83;2.53;;;6.90;61.10;;;5.53;65.55;100790.38;12192975;19;20413;-84
2022/12/07 03:24:58;;;;;;;2.87;2.63;;;6.90;61.10;;;5.35;65.22;100765.09;12188807;19;20389;-84
2022/12/07 03:29:12;;;;;;;2.38;2.17;;;6.90;60.80;;;5.30;65.48;100758.34;12193190;19;20292;-84
2022/12/07 03:33:35;;;;;;;2.42;2.22;;;6.80;60.80;;;5.38;65.24;100765.00;12188151;19;20014;-84
2022/12/07 03:37:58;;;;;;;2.50;2.30;;;6.80;60.80;;;5.41;65.42;100770.94;12185475;19;20126;-84
2022/12/07 03:42:03;;;;;;;2.70;2.25;;;6.70;60.50;;;5.29;65.22;100735.94;12185955;19;20733;-84
2022/12/07 03:46:46;;;;;;;2.72;2.47;;;6.70;60.50;;;5.29;65.20;100735.06;12180475;19;20499;-84
2022/12/07 03:51:24;;;;;;;3.65;3.08;;;6.60;60.40;;;5.21;65.39;100732.75;12184200;19;20018;-84
2022/12/07 03:55:34;;;;;;;2.30;1.98;;;6.60;60.30;;;5.13;65.21;100719.22;12184249;19;20964;-84
2022/12/07 03:59:37;;;;;;;3.65;3.08;;;6.60;60.40;;;5.07;65.25;100701.28;12188614;19;20040;-84
2022/12/07 04:03:40;;;;;;;3.10;2.53;;;6.60;60.60;;;5.03;65.39;100686.78;12217232;19;20063;-84
2022/12/07 04:07:45;;;;;;;2.90;2.65;;;6.50;60.50;;;5.00;65.47;100686.88;12218511;19;20043;-84
2022/12/07 04:11:47;;;;;;;3.17;2.85;;;6.40;60.60;;;4.89;65.34;100658.78;12202009;19;20106;-84
2022/12/07 04:15:49;;;;;;;3.40;3.00;;;6.40;60.80;;;5.04;65.27;100694.47;12182806;19;20549;-84
2022/12/07 04:19:51;;;;;;;4.78;3.03;;;6.40;60.90;;;4.76;65.37;100649.72;12188556;19;20390;-84
2022/12/07 04:23:52;;;;;;;5.07;3.63;;;6.60;61.10;;;4.99;65.15;100688.59;12189689;19;20015;-83
2022/12/07 04:27:54;;;;;;;3.42;2.88;;;6.50;61.20;;;4.92;65.42;100669.00;12188758;19;20011;-84
2022/12/07 04:31:56;;;;;;;3.95;3.35;;;6.40;61.20;;;4.88;65.30;100670.00;12187810;19;20007;-83
2022/12/07 04:35:58;;;;;;;5.10;3.50;;;6.30;61.20;;;4.95;65.42;100687.03;12182669;19;20074;-84
2022/12/07 04:40:00;;;;;;;5.20;3.75;;;6.20;61.20;;;4.89;65.39;100663.94;12183983;19;20473;-84
2022/12/07 04:44:07;;;;;;;4.43;3.78;;;6.40;61.50;;;4.95;65.29;100670.66;12183117;19;21347;-83
2022/12/07 04:48:08;;;;;;;6.47;3.80;;;6.30;61.30;;;4.29;65.37;100562.41;12183971;19;20014;-83
2022/12/07 04:52:10;;;;;;;5.97;3.85;;;6.40;61.50;;;4.83;65.37;100653.78;12186640;19;20018;-83
2022/12/07 04:56:13;;;;;;;5.22;4.07;;;6.20;61.30;;;4.75;65.32;100640.25;12181007;19;20265;-83
2022/12/07 05:00:16;;;;;;;7.28;3.92;;;6.20;61.30;;;4.79;65.32;100639.25;12182997;19;20079;-83
2022/12/07 05:04:17;;;;;;;5.13;3.58;;;6.20;61.40;;;4.78;65.37;100638.41;12181564;19;20023;-83
2022/12/07 05:08:19;;;;;;;5.53;4.45;;;6.20;61.50;;;4.84;65.26;100647.72;12177118;19;21015;-83
2022/12/07 05:12:21;;;;;;;6.35;4.40;;;6.20;61.60;;;4.72;65.46;100625.66;12177417;19;20014;-84
2022/12/07 05:16:24;;;;;;;5.82;4.22;;;6.10;61.60;;;4.73;65.36;100626.53;12177419;19;20031;-84
2022/12/07 05:20:26;;;;;;;6.32;4.25;;;6.30;61.90;;;4.80;65.48;100635.75;12175010;19;20022;-83
2022/12/07 05:24:27;;;;;;;5.05;3.92;;;6.10;61.80;;;4.74;65.59;100631.63;12178090;19;20015;-83
2022/12/07 05:28:29;;;;;;;6.47;4.38;;;6.10;61.80;;;4.78;65.35;100635.84;12183027;19;20029;-83
2022/12/07 05:32:31;;;;;;;7.22;5.03;;;6.10;61.90;;;4.64;65.24;100614.72;12177014;19;20391;-84
2022/12/07 05:36:32;;;;;;;8.20;5.25;;;6.10;61.90;;;4.72;65.38;100620.50;12174544;19;20129;-83
2022/12/07 05:40:36;;;;;;;7.57;5.00;;;6.10;62.00;;;4.72;65.51;100620.50;12175996;19;20121;-84
2022/12/07 05:44:41;;;;;;;7.65;4.85;;;6.10;62.10;;;4.44;65.58;100569.69;12189976;19;20015;-84
2022/12/07 05:48:43;;;;;;;7.35;5.13;;;6.10;62.20;;;4.78;65.59;100612.56;12188517;19;20715;-84
2022/12/07 05:52:45;;;;;;;8.35;5.50;;;6.40;62.60;;;4.72;65.64;100598.97;12186857;19;20015;-84
2022/12/07 05:56:46;;;;;;;7.63;4.85;;;6.10;62.40;;;4.73;65.43;100606.69;12187635;19;20042;-84
2022/12/07 06:00:48;;;;;;;9.98;5.85;;;6.10;62.50;;;4.77;65.43;100603.09;12191576;19;20018;-83
2022/12/07 06:04:49;;;;;;;8.40;5.95;;;6.10;62.60;;;4.82;65.73;100606.38;12194079;19;20754;-84
2022/12/07 06:08:51;;;;;;;10.70;6.20;;;6.20;62.80;;;4.74;65.60;100585.09;12194882;19;20304;-84
2022/12/07 06:12:56;;;;;;;8.95;6.53;;;6.20;62.80;;;4.82;65.51;100603.78;12184195;19;20018;-84
2022/12/07 06:16:59;;;;;;;13.27;6.88;;;6.20;63.50;;;4.85;65.71;100595.91;12218432;19;20027;-83
2022/12/07 06:21:02;;;;;;;11.05;6.70;;;6.20;62.90;;;4.88;65.52;100589.78;12188176;19;20035;-83
2022/12/07 06:25:04;;;;;;;9.95;6.35;;;6.30;63.10;;;4.77;65.68;100560.84;12165799;19;20019;-83
2022/12/07 06:29:06;;;;;;;8.02;5.20;;;6.20;63.10;;;4.71;65.56;100530.03;12160681;19;20590;-83
2022/12/07 06:33:08;;;;;;;10.48;6.35;;;6.30;63.30;;;4.87;65.55;100557.91;12166265;19;20407;-83
2022/12/07 06:37:10;;;;;;;11.23;7.30;;;6.30;63.40;;;4.91;65.55;100557.78;12163038;19;20320;-83
2022/12/07 06:41:12;;;;;;;10.77;6.80;;;6.30;63.40;;;4.95;65.70;100559.41;12173111;19;20021;-82
2022/12/07 06:45:14;;;;;;;12.10;7.53;;;6.40;63.50;;;4.88;65.72;100538.88;12169247;19;20034;-82
2022/12/07 06:49:16;;;;;;;9.40;6.05;;;6.30;63.40;;;5.03;65.79;100570.31;12160878;19;20386;-82
2022/12/07 06:53:18;;;;;;;11.57;7.65;;;6.40;63.50;;;5.01;65.51;100559.16;12164483;19;20845;-82
2022/12/07 06:57:20;;;;;;;10.68;6.32;;;6.40;63.50;;;5.02;65.61;100553.09;12157087;19;20018;-83
2022/12/07 07:01:21;;;;;;;9.27;6.60;;;6.50;63.50;;;5.01;65.59;100561.75;12160486;19;20025;-83
2022/12/07 07:05:23;;;;;;;11.25;6.80;;;6.40;63.50;;;4.97;65.64;100549.81;12165014;19;20025;-83
2022/12/07 07:09:25;;;;;;;11.07;7.05;;;6.40;63.60;;;4.88;65.66;100522.53;12159353;19;20316;-82
2022/12/07 07:13:27;;;;;;;11.57;6.68;;;6.50;63.60;;;5.07;65.67;100548.59;12168010;19;20026;-82
2022/12/07 07:17:29;;;;;;;8.63;6.07;;;6.50;63.60;;;5.14;65.86;100555.25;12163591;19;20018;-82
2022/12/07 07:21:30;;;;;;;10.77;7.00;;;6.50;63.60;;;5.17;65.90;100555.16;12168005;19;20111;-82
2022/12/07 07:25:32;;;;;;;11.95;6.43;;;6.50;63.70;;;5.08;65.73;100534.78;12161804;19;20029;-82
2022/12/07 07:29:34;;;;;;;12.05;7.07;;;6.60;63.80;;;5.23;65.67;100565.28;12161258;19;20320;-82
2022/12/07 07:33:35;;;;;;;10.73;7.03;;;6.60;63.80;;;5.15;65.90;100545.75;12158937;19;20015;-84
2022/12/07 07:37:37;;;;;;;8.48;6.40;;;6.60;63.90;;;5.17;65.90;100541.38;12160784;19;20868;-84
2022/12/07 07:41:39;;;;;;;8.52;5.80;;;6.60;63.90;;;5.26;65.75;100548.78;12168869;19;20018;-82
2022/12/07 07:45:47;;;;;;;9.32;5.85;;;6.70;64.00;;;5.29;65.78;100549.53;12163520;19;20602;-82
2022/12/07 07:49:49;;;;;;;10.55;6.68;;;6.70;64.10;;;5.27;65.93;100542.72;12166463;19;20648;-83
2022/12/07 07:53:54;;;;;;;8.60;5.93;;;6.70;64.10;;;5.25;65.97;100527.25;12164246;19;20339;-83
2022/12/07 07:57:56;;;;;;;8.50;6.20;;;6.80;64.10;;;5.44;65.99;100555.06;12178693;19;20018;-83
2022/12/07 08:01:57;;;;;;;9.02;6.43;;;6.80;64.10;;;5.40;65.83;100537.94;12170561;19;20787;-83
2022/12/07 08:05:59;;;;;;;10.20;6.53;;;6.90;64.20;;;5.40;65.86;100530.16;12159459;19;20018;-83
2022/12/07 08:10:01;;;;;;;10.70;6.53;;;6.90;64.30;;;5.48;65.76;100541.06;12160138;19;20021;-83
2022/12/07 08:14:03;;;;;;;9.50;6.15;;;6.90;64.40;;;5.54;66.07;100553.81;12163880;19;20030;-83
2022/12/07 08:18:04;;;;;;;8.05;5.65;;;6.90;64.40;;;5.27;66.02;100499.56;12157364;19;20801;-84
2022/12/07 08:22:06;;;;;;;8.77;6.32;;;7.20;64.60;;;5.54;65.90;100543.47;12164234;19;20101;-84
2022/12/07 08:26:13;;;;;;;8.15;5.68;;;7.00;64.60;;;5.55;66.10;100535.63;12163210;19;20479;-84
2022/12/07 08:30:16;;;;;;;7.38;5.30;;;7.10;64.60;;;5.68;65.90;100556.72;12160319;19;20898;-83
2022/12/07 08:34:17;;;;;;;8.20;5.05;;;7.10;64.70;;;5.62;66.11;100540.59;12158556;19;20305;-83
2022/12/07 08:38:19;;;;;;;7.57;5.32;;;7.10;64.70;;;5.69;65.95;100557.56;12158070;19;20026;-84
2022/12/07 08:42:22;;;;;;;7.72;5.60;;;7.10;64.90;;;5.75;66.15;100560.78;12148506;19;20019;-83
2022/12/07 08:46:40;;;;;;;5.78;4.05;;;7.20;64.70;;;5.71;66.11;100550.59;12158745;19;20019;-83
2022/12/07 08:50:42;;;;;;;4.72;3.78;;;7.20;64.60;;;5.76;66.05;100548.66;12153282;19;21050;-84
2022/12/07 08:54:44;;;;;;;4.88;4.00;;;7.20;64.40;;;5.74;66.05;100550.47;12158171;19;20017;-83
2022/12/07 08:58:46;;;;;;;4.68;4.03;;;7.30;64.40;;;5.83;66.09;100573.41;12167966;19;20042;-84
2022/12/07 09:02:47;;;;;;;3.85;3.38;;;7.30;64.30;;;5.89;66.01;100580.16;12172553;19;20019;-84
2022/12/07 09:06:49;;;;;;;3.53;2.92;;;7.30;64.00;;;5.74;66.07;100556.47;12169612;19;20018;-85
2022/12/07 09:10:51;;;;;;;3.58;2.80;;;7.30;63.80;;;5.82;65.97;100555.34;12162638;19;20072;-85
2022/12/07 09:14:53;;;;;;;2.58;2.30;;;7.30;63.60;;;5.88;66.11;100573.25;12160694;19;20006;-85
2022/12/07 09:18:55;;;;;;;2.42;2.10;;;7.30;63.20;;;5.75;66.09;100550.41;12169112;19;20017;-83
2022/12/07 09:22:56;;;;;;;2.10;1.90;;;7.30;62.90;;;5.90;66.21;100581.81;12173803;19;20439;-83
2022/12/07 09:26:58;;;;;;;1.60;1.50;;;7.30;62.50;;;5.83;66.09;100575.19;12171790;19;20021;-83
2022/12/07 09:31:02;;;;;;;1.30;1.20;;;7.30;62.50;;;5.85;65.94;100589.75;12153122;19;20423;-83
2022/12/07 09:35:04;;;;;;;1.20;1.20;;;7.30;61.80;;;5.92;65.91;100590.38;12179788;19;20042;-82
2022/12/07 09:39:05;;;;;;;1.48;1.38;;;7.30;61.60;;;5.81;66.03;100577.00;12175824;19;20014;-83
2022/12/07 09:43:13;;;;;;;1.02;0.98;;;7.30;61.50;;;5.84;65.88;100576.88;12168790;19;20018;-84
2022/12/07 09:47:15;;;;;;;1.40;1.30;;;7.30;60.90;;;5.86;65.82;100600.97;12170005;19;20734;-83
2022/12/07 09:51:24;;;;;;;1.63;1.38;;;7.50;60.80;;;5.79;66.02;100590.00;12166759;19;21087;-82
2022/12/07 09:55:29;;;;;;;1.40;1.30;;;7.30;60.60;;;5.76;65.97;100601.31;12175553;19;20451;-84
2022/12/07 09:59:31;;;;;;;1.08;1.08;;;7.30;60.80;;;5.88;65.95;100623.34;12168019;19;20019;-84
2022/12/07 10:03:37;;;;;;;1.02;1.02;;;7.30;60.70;;;5.86;65.84;100606.16;12173472;19;20039;-83
2022/12/07 10:07:40;;;;;;;2.35;1.35;;;7.30;60.40;;;5.76;65.90;100603.91;12172831;19;20022;-83
2022/12/07 10:12:01;;;;;;;1.83;1.10;;;7.30;60.70;;;5.91;65.64;100632.75;12170458;19;20018;-82
2022/12/07 10:16:04;;;;;;;1.50;1.38;;;7.30;60.50;;;5.94;65.87;100617.09;12198275;19;20334;-83
2022/12/07 10:20:27;;;;;;;1.70;1.30;;;7.30;60.40;;;5.91;65.71;100627.56;12189081;19;21538;-82
2022/12/07 10:24:29;;;;;;;1.05;1.05;;;7.30;60.00;;;5.80;65.74;100601.22;12188632;19;20023;-83
2022/12/07 10:28:35;;;;;;;1.10;1.10;;;7.30;59.80;;;5.77;65.56;100604.75;12201194;19;20313;-84
2022/12/07 10:32:37;;;;;;;1.23;1.13;;;7.30;59.80;;;5.86;65.68;100619.09;12198850;19;20382;-83
2022/12/07 10:36:39;;;;;;;1.10;1.10;;;7.30;59.70;;;5.90;65.83;100625.88;12171483;19;20561;-84
2022/12/07 10:40:40;;;;;;;1.25;1.10;;;7.30;59.90;;;5.86;65.69;100607.03;12161371;19;20487;-83
2022/12/07 10:44:43;;;;;;;1.20;1.10;;;7.30;59.80;;;5.94;65.71;100624.88;12160866;19;20023;-83
2022/12/07 10:48:59;;;;;;;2.55;1.27;;;7.30;60.00;;;5.94;65.67;100630.06;12164015;19;20765;-83
2022/12/07 10:53:21;;;;;;;1.52;1.42;;;7.30;59.80;;;5.74;65.67;100582.38;12152134;19;20602;-83
2022/12/07 10:57:47;;;;;;;1.60;1.50;;;7.30;59.50;;;5.86;65.63;100590.59;12162775;19;20478;-83
2022/12/07 11:02:40;;;;;;;1.40;1.30;;;7.30;59.90;;;5.89;65.49;100601.72;12158467;19;20018;-83
2022/12/07 11:06:51;;;;;;;1.40;1.30;;;7.30;59.80;;;5.94;65.48;100605.00;12159999;19;20306;-84
2022/12/07 11:11:12;;;;;;;1.63;1.48;;;7.40;59.90;;;5.90;65.52;100598.22;12166602;19;20022;-83
2022/12/07 11:15:28;;;;;;;1.38;1.27;;;7.40;59.90;;;5.98;65.58;100598.78;12153747;19;20015;-82
2022/12/07 11:20:25;;;;;;;1.50;1.40;;;7.40;59.90;;;5.98;65.45;100592.78;12172236;19;20028;-82
2022/12/07 11:24:46;;;;;;;;;;;7.40;59.80;;;5.94;65.48;100584.28;12169164;19;20026;-82
2022/12/07 11:29:27;;;;;;;3.28;1.17;;;7.40;60.50;;;5.99;65.46;100602.22;12163783;19;19969;-83
2022/12/07 11:34:00;;;;;;;1.48;1.38;;;7.40;59.80;;;5.96;65.63;100590.22;12162179;19;20034;-83
2022/12/07 11:38:17;;;;;;;1.50;1.40;;;7.40;59.90;;;5.87;65.55;100574.16;12158784;19;20772;-82
2022/12/07 11:42:28;;;;;;;1.60;1.50;;;7.40;59.80;;;5.94;65.42;100567.88;12164323;19;20022;-81
2022/12/07 11:46:50;;;;;;;2.85;1.70;;;7.50;60.10;;;6.09;65.57;100582.81;12165423;19;20060;-83
2022/12/07 11:50:56;;;;;;;1.58;1.40;;;7.50;60.10;;;5.81;65.59;100532.97;12170651;19;20022;-84
2022/12/07 11:55:01;;;;;;;1.48;1.38;;;7.50;59.90;;;6.14;65.63;100580.06;12173490;19;20018;-83
2022/12/07 11:59:30;;;;;;;1.45;1.35;;;7.60;59.90;;;6.27;65.62;100601.19;12178314;19;20014;-83
2022/12/07 12:03:40;;;;;;;1.50;1.40;;;7.60;59.90;;;6.19;65.54;100581.56;12175006;19;20114;-83
2022/12/07 12:07:44;;;;;;;1.65;1.55;;;7.70;60.60;;;6.23;65.55;100578.84;12171547;19;20011;-84
2022/12/07 12:12:01;;;;;;;1.58;1.48;;;7.70;59.80;;;6.33;65.55;100593.16;12180273;19;20026;-83
2022/12/07 12:16:48;;;;;;;1.80;1.70;;;7.70;59.90;;;5.66;65.38;100487.75;12179213;19;20058;-83
2022/12/07 12:21:07;;;;;;;2.72;1.40;;;7.80;59.90;;;6.32;65.28;100573.28;12172019;19;20322;-83
2022/12/07 12:25:46;;;;;;;1.90;1.60;;;7.80;59.90;;;6.28;65.17;100559.63;12170865;19;20019;-83
2022/12/07 12:29:55;;;;;;;1.80;1.70;;;7.80;59.80;;;6.43;65.50;100579.75;12167376;19;20034;-83
2022/12/07 12:34:00;;;;;;;3.88;1.88;;;7.80;59.90;;;6.38;65.46;100566.13;12164455;19;20315;-85
2022/12/07 12:38:27;;;;;;;1.75;1.65;;;7.80;60.00;;;6.49;65.39;100572.63;12167771;19;20029;-83
2022/12/07 12:42:46;;;;;;;4.93;1.95;;;7.90;59.90;;;6.48;65.42;100569.19;12162981;19;20015;-85
2022/12/07 12:47:24;;;;;;;1.50;1.40;;;7.90;59.90;;;6.28;65.38;100530.25;12168562;19;20030;-84
2022/12/07 12:51:46;;;;;;;2.22;1.48;;;7.90;59.90;;;6.50;65.25;100563.94;12168789;19;20284;-83
2022/12/07 12:56:19;;;;;;;1.30;1.17;;;7.90;59.80;;;6.52;65.22;100564.72;12179174;19;20559;-83
2022/12/07 13:00:27;;;;;;;2.03;1.50;;;7.90;59.70;;;6.56;65.38;100566.25;12185781;19;20035;-83
2022/12/07 13:05:05;;;;;;;1.35;1.25;;;7.90;59.70;;;6.45;65.19;100556.31;12169660;19;20118;-83
2022/12/07 13:09:33;;;;;;;1.45;1.35;;;8.00;59.70;;;6.51;65.05;100563.88;12168222;19;20122;-82
2022/12/07 13:13:36;;;;;;;1.52;1.40;;;8.00;59.70;;;6.57;65.40;100558.44;12167583;19;20022;-83
2022/12/07 13:17:37;;;;;;;1.55;1.38;;;8.00;59.80;;;6.64;65.40;100559.00;12184896;19;20022;-81
2022/12/07 13:21:43;;;;;;;2.05;1.27;;;8.00;59.80;;;6.63;65.21;100559.94;12180574;19;20022;-83
2022/12/07 13:25:59;;;;;;;2.03;1.92;;;8.00;59.90;;;6.64;65.40;100557.28;12165179;19;21272;-82
2022/12/07 13:30:01;;;;;;;2.15;1.30;;;8.00;59.90;;;6.72;65.30;100556.94;12172106;19;20445;-83
2022/12/07 13:34:24;;;;;;;2.67;1.40;;;8.10;59.90;;;6.77;65.26;100557.59;12176234;19;20739;-82
2022/12/07 13:38:33;;;;;;;1.80;1.38;;;8.10;60.00;;;6.77;65.06;100551.56;12166433;19;20312;-82
2022/12/07 13:42:36;;;;;;;1.73;1.05;;;8.30;60.00;;;6.69;65.13;100531.13;12175659;19;20344;-82
2022/12/07 13:47:09;;;;;;;1.42;1.30;;;8.20;60.50;;;6.80;65.06;100548.84;12171494;19;20040;-82
2022/12/07 13:51:28;;;;;;;1.63;1.25;;;8.10;59.70;;;6.71;65.02;100537.09;12169623;19;20791;-83
2022/12/07 13:55:33;;;;;;;1.23;1.10;;;8.20;59.80;;;6.74;65.08;100536.97;12166673;19;20419;-82
2022/12/07 13:59:37;;;;;;;1.33;1.23;;;8.30;59.90;;;6.79;64.97;100544.56;12170589;19;20111;-84
2022/12/07 14:03:39;;;;;;;2.67;1.17;;;8.20;59.90;;;6.75;65.25;100541.25;12172258;19;20275;-83
2022/12/07 14:08:21;;;;;;;1.23;1.00;;;8.20;59.80;;;6.83;65.00;100564.28;12172229;19;20023;-84
2022/12/07 14:12:25;;;;;;;1.35;1.25;;;8.20;59.70;;;6.85;65.16;100563.31;12179503;19;20022;-83
2022/12/07 14:16:37;;;;;;;1.38;1.25;;;8.20;59.80;;;6.84;64.89;100555.59;12173673;19;20017;-84
2022/12/07 14:20:41;;;;;;;1.90;1.20;;;8.20;59.80;;;6.60;65.03;100518.56;12173134;19;20089;-83
2022/12/07 14:24:43;;;;;;;2.78;1.33;;;8.50;59.90;;;6.79;65.07;100541.97;12174808;19;20015;-83
2022/12/07 14:28:46;;;;;;;2.00;1.50;;;8.30;59.70;;;6.41;64.94;100484.75;12176192;19;20504;-85
2022/12/07 14:32:57;;;;;;;3.60;1.85;;;8.20;60.10;;;6.72;65.12;100535.34;12182429;19;20021;-84
2022/12/07 14:36:59;;;;;;;1.48;1.38;;;8.30;59.70;;;6.83;65.16;100540.91;12177747;19;20015;-85
2022/12/07 14:45:41;;;;;;;3.38;1.42;;;8.20;59.50;;;6.89;65.09;100545.03;12174348;19;20402;-85
2022/12/07 14:49:43;;;;;;;1.85;1.48;;;8.30;59.60;;;6.89;64.87;100548.47;12178415;19;20103;-84
2022/12/07 14:53:50;;;;;;;1.50;1.23;;;8.30;59.60;;;6.64;64.90;100500.22;12177484;19;20029;-85
2022/12/07 14:57:53;;;;;;;3.22;1.65;;;8.20;59.60;;;6.82;64.90;100527.09;12180597;19;20038;-85
2022/12/07 15:01:55;;;;;;;3.45;1.48;;;8.20;59.50;;;6.84;65.03;100525.28;12175147;19;20384;-83
2022/12/07 15:05:57;;;;;;;1.42;1.20;;;8.20;59.50;;;6.75;64.90;100506.66;12171251;19;20451;-84
2022/12/07 15:09:58;;;;;;;3.25;1.67;;;8.20;59.40;;;6.84;64.93;100522.69;12168757;19;20112;-84
2022/12/07 15:14:10;;;;;;;3.80;1.30;;;8.20;59.50;;;6.81;64.77;100522.00;12173430;19;21014;-84
2022/12/07 15:18:12;;;;;;;1.30;1.20;;;8.20;59.40;;;6.63;64.94;100513.22;12178621;19;20276;-84
2022/12/07 15:22:13;;;;;;;1.48;1.08;;;8.10;59.50;;;6.63;64.91;100505.44;12175823;19;20018;-84
2022/12/07 15:26:15;;;;;;;1.70;1.35;;;8.10;59.50;;;6.65;64.79;100529.59;12173515;19;20386;-83
2022/12/07 15:30:16;;;;;;;2.58;1.35;;;8.10;59.40;;;6.69;65.01;100532.88;12178246;19;20917;-83
2022/12/07 15:34:18;;;;;;;1.20;1.10;;;8.10;59.50;;;6.71;64.71;100533.66;12181847;19;20956;-84
2022/12/07 15:38:20;;;;;;;1.80;1.45;;;8.00;59.50;;;6.64;64.88;100530.47;12180461;19;20867;-83
2022/12/07 15:42:21;;;;;;;3.20;0.90;;;8.00;59.50;;;6.59;64.91;100524.66;12177344;19;20117;-83
2022/12/07 15:46:24;;;;;;;4.07;2.33;;;7.90;59.50;;;6.52;64.69;100521.47;12170660;19;20106;-84
2022/12/07 15:50:25;;;;;;;3.40;1.77;;;8.20;59.50;;;6.58;64.87;100533.31;12178460;19;20019;-84
2022/12/07 15:54:29;;;;;;;5.15;1.80;;;7.90;59.30;;;6.48;64.79;100532.88;12171374;19;20033;-82
2022/12/07 15:58:31;;;;;;;4.13;1.38;;;7.90;59.40;;;6.48;64.59;100529.41;12180887;19;20026;-83
2022/12/07 16:02:33;;;;;;;3.28;1.45;;;7.90;59.50;;;6.47;64.64;100531.19;12173472;19;20018;-82
2022/12/07 16:06:34;;;;;;;1.65;1.30;;;7.80;59.50;;;6.45;64.60;100532.97;12173035;19;20431;-84
2022/12/07 16:10:37;;;;;;;1.75;1.40;;;7.80;59.50;;;6.45;64.59;100539.94;12172651;19;20011;-85
2022/12/07 16:14:39;;;;;;;4.57;1.50;;;7.80;59.50;;;6.38;64.62;100539.34;12173058;19;20895;-83
2022/12/07 16:18:43;;;;;;;3.45;2.58;;;7.80;59.60;;;6.33;64.65;100539.53;12172533;19;20007;-84
2022/12/07 16:22:45;;;;;;;1.97;1.80;;;7.90;59.50;;;6.24;64.81;100523.50;12167017;19;21072;-84
2022/12/07 16:26:52;;;;;;;1.67;1.55;;;7.70;59.60;;;6.28;64.85;100525.06;12176796;19;20386;-84
2022/12/07 16:31:03;;;;;;;1.40;1.30;;;7.60;59.90;;;6.22;64.63;100514.94;12170750;19;20026;-83
2022/12/07 16:35:06;;;;;;;3.83;1.45;;;7.60;59.50;;;6.24;64.62;100526.06;12163533;19;20267;-83
2022/12/07 16:39:09;;;;;;;2.03;1.17;;;7.60;59.60;;;6.23;64.97;100527.84;12168803;19;20014;-83
2022/12/07 16:43:13;;;;;;;2.85;2.15;;;7.60;59.60;;;6.20;64.55;100523.63;12161814;19;20011;-82
2022/12/07 16:47:14;;;;;;;2.40;1.40;;;7.60;59.60;;;6.20;64.91;100533.16;12162758;19;20021;-83
2022/12/07 16:51:16;;;;;;;2.45;1.52;;;7.60;59.70;;;6.25;64.55;100538.16;12161183;19;20015;-83
2022/12/07 16:55:17;;;;;;;4.22;1.38;;;7.50;59.50;;;6.20;64.62;100552.13;12169155;19;20271;-83
2022/12/07 16:59:19;;;;;;;2.05;1.40;;;7.50;59.60;;;6.16;64.78;100545.41;12168359;19;20022;-83
2022/12/07 17:03:21;;;;;;;2.13;1.42;;;7.50;59.60;;;6.14;64.75;100552.38;12167232;19;20017;-83
2022/12/07 17:07:23;;;;;;;2.08;1.42;;;7.50;59.70;;;6.07;64.60;100537.13;12162413;19;20015;-82
2022/12/07 17:11:28;;;;;;;2.15;1.40;;;7.50;59.70;;;6.01;64.58;100533.03;12164909;19;20018;-83
2022/12/07 17:15:30;;;;;;;1.40;1.20;;;7.50;59.60;;;6.09;64.69;100530.97;12164551;19;20029;-82
2022/12/07 17:19:31;;;;;;;1.98;1.60;;;7.50;59.50;;;6.02;64.55;100539.06;12179492;19;20022;-82
2022/12/07 17:23:35;;;;;;;2.10;1.90;;;7.40;59.50;;;6.01;64.60;100542.56;12180091;19;20284;-82